Time;durP1;ratioP1;P1;durP2;ratioP2;P2;SDS_P1;SDS_P2;PMS_P1;PMS_P2;Temp;Humidity;BMP_temperature;BMP_pressure;BME280_temperature;BME280_humidity;BME280_pressure;Samples;Min_cycle;Max_cycle;Signal;HPM_P1;HPM_P2
2021/04/10 00:01:10;;;;;;;100.15;36.92;;;;;;;1.02;83.92;98339.91;5070792;28;20493;-85
2021/04/10 00:03:36;;;;;;;114.38;41.53;;;;;;;1.01;85.16;98345.22;5018657;28;20485;-84
2021/04/10 00:06:02;;;;;;;119.10;42.58;;;;;;;1.02;85.00;98346.94;5064376;28;20036;-84
2021/04/10 00:08:27;;;;;;;109.07;41.35;;;;;;;0.95;85.16;98338.22;5027065;28;20090;-85
2021/04/10 00:10:53;;;;;;;108.50;38.75;;;;;;;1.06;84.05;98333.72;5055589;28;20146;-85
2021/04/10 00:13:18;;;;;;;119.05;40.35;;;;;;;1.10;85.22;98345.09;5063658;28;20056;-86
2021/04/10 00:15:44;;;;;;;116.45;40.40;;;;;;;1.05;85.66;98345.13;5055992;28;20507;-85
2021/04/10 00:18:09;;;;;;;114.35;40.47;;;;;;;1.12;86.14;98352.97;5018014;28;20108;-85
2021/04/10 00:20:35;;;;;;;107.68;39.08;;;;;;;1.09;86.22;98348.63;5066428;28;20029;-85
2021/04/10 00:23:01;;;;;;;103.25;40.20;;;;;;;0.99;86.14;98339.94;5072535;28;20044;-85
2021/04/10 00:25:26;;;;;;;83.53;34.85;;;;;;;1.02;85.82;98346.94;5062179;28;20025;-85
2021/04/10 00:27:52;;;;;;;87.13;34.65;;;;;;;0.95;85.24;98332.97;5033618;28;20045;-85
2021/04/10 00:30:17;;;;;;;81.13;33.47;;;;;;;0.84;85.52;98313.78;5025273;28;20112;-85
2021/04/10 00:32:43;;;;;;;77.25;32.55;;;;;;;0.92;86.00;98334.78;5033092;28;20557;-85
2021/04/10 00:35:10;;;;;;;86.43;34.40;;;;;;;0.83;85.46;98324.34;5064464;28;20112;-85
2021/04/10 00:37:35;;;;;;;81.63;33.13;;;;;;;0.90;86.08;98336.53;5015662;28;20115;-85
2021/04/10 00:40:08;;;;;;;74.40;32.72;;;;;;;0.83;85.34;98330.47;5043663;28;20116;-85
2021/04/10 00:42:35;;;;;;;75.53;31.85;;;;;;;0.81;86.62;98339.28;5028452;28;20030;-85
2021/04/10 00:45:01;;;;;;;88.13;32.80;;;;;;;0.73;86.66;98327.97;5027208;28;20060;-85
2021/04/10 00:47:27;;;;;;;83.60;33.90;;;;;;;0.66;86.26;98323.63;5033069;28;20037;-85
2021/04/10 00:49:52;;;;;;;80.78;32.28;;;;;;;0.65;86.50;98319.28;5050732;28;20433;-86
2021/04/10 00:52:19;;;;;;;73.38;31.15;;;;;;;0.62;86.29;98327.19;5052546;28;20033;-86
2021/04/10 00:54:47;;;;;;;77.65;30.15;;;;;;;0.61;87.41;98336.00;5027978;28;20091;-87
2021/04/10 00:57:13;;;;;;;77.45;31.73;;;;;;;0.55;88.00;98329.88;5030549;28;20036;-85
2021/04/10 00:59:38;;;;;;;74.03;29.00;;;;;;;0.59;87.37;98324.59;5063912;28;20029;-86
2021/04/10 01:02:05;;;;;;;61.53;28.25;;;;;;;0.62;87.34;98333.31;5024114;28;20029;-87
2021/04/10 01:04:31;;;;;;;63.85;27.20;;;;;;;0.56;86.81;98314.97;5026217;28;20029;-87
2021/04/10 01:06:57;;;;;;;69.55;26.77;;;;;;;0.55;86.42;98316.72;5022486;28;20405;-87
2021/04/10 01:09:22;;;;;;;65.75;26.88;;;;;;;0.58;87.86;98322.84;5024874;28;20025;-87
2021/04/10 01:11:58;;;;;;;50.95;21.02;;;;;;;0.51;85.98;98316.78;5072235;28;20044;-87
2021/04/10 01:14:26;;;;;;;49.97;22.92;;;;;;;0.44;85.62;98315.97;5033091;28;20498;-86
2021/04/10 01:16:58;;;;;;;55.85;23.75;;;;;;;0.43;86.48;98310.75;5041424;28;20476;-87
2021/04/10 01:19:45;;;;;;;41.43;18.30;;;;;;;0.50;87.06;98326.44;5014550;28;20114;-87
2021/04/10 01:22:26;;;;;;;46.75;21.67;;;;;;;0.43;88.20;98319.47;5062212;28;20033;-86
2021/04/10 01:24:51;;;;;;;56.88;22.35;;;;;;;0.37;87.60;98316.91;5043838;28;20588;-86
2021/04/10 01:27:24;;;;;;;56.25;21.63;;;;;;;0.32;87.49;98309.94;5050699;28;20131;-86
2021/04/10 01:29:50;;;;;;;;;;;;;;;0.33;87.41;98312.56;5030635;28;20548;-87
2021/04/10 01:32:17;;;;;;;52.10;22.52;;;;;;;0.19;88.01;98303.03;5054621;28;19913;-87
2021/04/10 01:34:51;;;;;;;48.92;23.15;;;;;;;0.27;88.61;98312.63;5067893;28;20037;-86
2021/04/10 01:37:25;;;;;;;55.88;23.10;;;;;;;0.17;88.64;98310.09;5032634;28;20025;-86
2021/04/10 01:39:51;;;;;;;56.92;23.13;;;;;;;0.23;89.35;98308.28;5018072;28;20025;-85
2021/04/10 01:42:22;;;;;;;55.35;24.33;;;;;;;0.18;89.32;98291.69;5028154;28;20441;-87
2021/04/10 01:44:49;;;;;;;62.75;26.15;;;;;;;0.17;89.02;98289.94;5028993;28;20025;-87
2021/04/10 01:47:16;;;;;;;53.28;23.10;;;;;;;0.26;87.65;98297.72;5033860;28;20028;-88
2021/04/10 01:49:42;;;;;;;52.65;24.63;;;;;;;0.27;88.26;98290.72;5022597;28;20418;-87
2021/04/10 01:52:08;;;;;;;51.95;24.63;;;;;;;0.25;87.51;98288.09;5034205;28;20056;-85
2021/04/10 01:54:34;;;;;;;55.83;23.75;;;;;;;0.16;87.06;98276.78;5035438;28;20094;-84
2021/04/10 01:57:01;;;;;;;55.20;23.75;;;;;;;0.17;87.32;98281.16;5028813;28;20486;-85
2021/04/10 01:59:27;;;;;;;52.08;23.38;;;;;;;0.10;88.05;98290.84;5059299;28;20478;-84
2021/04/10 02:01:53;;;;;;;51.92;22.45;;;;;;;0.10;87.14;98287.34;5020865;28;20027;-86
2021/04/10 02:04:19;;;;;;;57.38;25.70;;;;;;;-0.05;88.08;98277.84;5024276;28;20029;-85
2021/04/10 02:06:46;;;;;;;58.85;24.38;;;;;;;0.02;88.59;98294.44;5025173;28;20051;-85
2021/04/10 02:09:13;;;;;;;49.38;22.25;;;;;;;-0.05;89.23;98285.72;5025901;28;20025;-85
2021/04/10 02:11:43;;;;;;;65.13;22.55;;;;;;;0.04;89.22;98293.53;5029011;28;20041;-85
2021/04/10 02:14:11;;;;;;;57.67;23.75;;;;;;;0.05;89.37;98302.31;5043051;28;20080;-85
2021/04/10 02:16:37;;;;;;;61.28;24.02;;;;;;;0.03;89.20;98285.69;5034607;28;20037;-85
2021/04/10 02:19:02;;;;;;;53.20;22.60;;;;;;;0.00;90.17;98287.44;5057238;28;20044;-86
2021/04/10 02:21:28;;;;;;;46.03;22.98;;;;;;;-0.01;90.15;98298.84;5022060;28;20025;-85
2021/04/10 02:23:54;;;;;;;58.40;25.48;;;;;;;-0.09;90.59;98291.88;5069860;28;20033;-85
2021/04/10 02:26:20;;;;;;;59.53;25.23;;;;;;;0.04;91.42;98293.53;5066955;28;20112;-85
2021/04/10 02:28:46;;;;;;;59.90;23.77;;;;;;;-0.06;91.44;98281.34;5019425;28;20034;-84
2021/04/10 02:32:01;;;;;;;60.85;24.20;;;;;;;-0.02;90.83;98280.44;5022819;28;20392;-85
2021/04/10 02:34:28;;;;;;;59.60;25.05;;;;;;;-0.04;90.06;98282.22;5040406;28;20040;-86
2021/04/10 02:36:55;;;;;;;68.85;26.63;;;;;;;-0.18;91.01;98287.59;5025749;28;20120;-85
2021/04/10 02:39:22;;;;;;;54.42;23.75;;;;;;;-0.23;91.03;98272.75;5051835;28;20033;-85
2021/04/10 02:41:50;;;;;;;57.47;23.05;;;;;;;-0.31;91.29;98278.06;5026594;28;20025;-85
2021/04/10 02:44:22;;;;;;;49.00;21.25;;;;;;;-0.26;91.12;98285.91;5044877;28;20056;-85
2021/04/10 02:46:49;;;;;;;50.60;21.40;;;;;;;-0.21;91.51;98297.25;5020907;28;20427;-85
2021/04/10 02:49:17;;;;;;;39.20;18.60;;;;;;;-0.34;91.75;98285.09;5032709;28;20029;-85
2021/04/10 02:51:49;;;;;;;40.80;18.13;;;;;;;-0.36;92.18;98302.59;5018739;28;20040;-85
2021/04/10 02:54:19;;;;;;;43.30;17.00;;;;;;;-0.41;93.08;98293.91;5018898;28;20030;-86
2021/04/10 02:57:11;;;;;;;37.97;17.83;;;;;;;-0.46;92.91;98296.53;5019098;28;20065;-85
2021/04/10 02:59:43;;;;;;;46.60;18.88;;;;;;;-0.50;93.26;98291.34;5024495;28;20032;-85
2021/04/10 03:02:10;;;;;;;48.63;20.63;;;;;;;-0.50;94.07;98294.84;5025343;28;20021;-86
2021/04/10 03:04:37;;;;;;;48.50;20.73;;;;;;;-0.49;93.08;98296.56;5044315;28;20420;-86
2021/04/10 03:07:05;;;;;;;56.75;21.00;;;;;;;-0.42;93.14;98305.28;5024402;28;20020;-86
2021/04/10 03:09:31;;;;;;;48.25;19.25;;;;;;;-0.49;93.56;98288.69;5023654;28;20029;-86
2021/04/10 03:11:57;;;;;;;48.78;18.90;;;;;;;-0.50;92.95;98288.72;5065147;28;20520;-86
2021/04/10 03:14:22;;;;;;;56.20;21.48;;;;;;;-0.50;92.98;98299.22;5035890;28;20112;-85
2021/04/10 03:16:49;;;;;;;47.45;19.27;;;;;;;-0.45;93.34;98302.69;5063289;28;20064;-84
2021/04/10 03:19:15;;;;;;;41.72;18.67;;;;;;;-0.55;92.73;98286.97;5059243;28;20033;-84
2021/04/10 03:21:41;;;;;;;41.38;19.60;;;;;;;-0.45;92.81;98300.03;5040622;28;20037;-85
2021/04/10 03:24:07;;;;;;;43.30;20.27;;;;;;;-0.50;93.10;98305.34;5032115;28;20024;-86
2021/04/10 03:26:33;;;;;;;52.97;20.70;;;;;;;-0.56;93.03;98298.38;5056690;28;20064;-85
2021/04/10 03:28:59;;;;;;;50.78;21.33;;;;;;;-0.57;94.08;98301.00;5026535;28;20029;-86
2021/04/10 03:31:25;;;;;;;50.05;21.08;;;;;;;-0.58;94.07;98294.00;5029462;28;20536;-86
2021/04/10 03:33:50;;;;;;;53.00;22.35;;;;;;;-0.51;94.09;98307.97;5016330;28;20060;-86
2021/04/10 03:36:16;;;;;;;49.75;22.48;;;;;;;-0.49;94.29;98296.56;5076534;28;20025;-85
2021/04/10 03:38:42;;;;;;;60.80;24.30;;;;;;;-0.47;93.75;98297.44;5015788;28;20412;-86
2021/04/10 03:41:08;;;;;;;55.72;24.02;;;;;;;-0.50;92.67;98296.59;5032009;28;20101;-85
2021/04/10 03:43:34;;;;;;;52.15;22.75;;;;;;;-0.61;92.59;98296.63;5065160;28;20021;-86
2021/04/10 03:46:01;;;;;;;47.88;21.55;;;;;;;-0.61;92.03;98301.88;5029043;28;20051;-86
2021/04/10 03:48:30;;;;;;;53.35;24.92;;;;;;;-0.56;92.94;98319.41;5029365;28;20068;-85
2021/04/10 03:50:57;;;;;;;52.13;21.77;;;;;;;-0.66;92.91;98314.19;5045341;28;20109;-85
2021/04/10 03:53:22;;;;;;;58.83;25.13;;;;;;;-0.62;91.67;98316.81;5054592;28;20037;-85
2021/04/10 03:55:48;;;;;;;49.13;21.50;;;;;;;-0.68;91.45;98316.81;5027593;28;20147;-85
2021/04/10 03:58:14;;;;;;;46.50;22.73;;;;;;;-0.67;91.84;98308.06;5076985;28;20488;-86
2021/04/10 04:00:39;;;;;;;51.78;23.27;;;;;;;-0.60;91.66;98312.41;5057301;28;20123;-86
2021/04/10 04:03:05;;;;;;;65.10;23.15;;;;;;;-0.52;92.34;98319.38;5055264;28;20025;-86
2021/04/10 04:05:30;;;;;;;51.40;21.08;;;;;;;-0.59;91.70;98308.03;5028811;28;20025;-86
2021/04/10 04:07:57;;;;;;;47.20;21.85;;;;;;;-0.55;91.58;98318.50;5020512;28;20507;-85
2021/04/10 04:10:23;;;;;;;47.70;23.17;;;;;;;-0.47;91.70;98326.34;5067951;28;20511;-86
2021/04/10 04:12:49;;;;;;;66.47;28.20;;;;;;;-0.43;91.19;98300.94;5035436;28;20032;-86
2021/04/10 04:15:14;;;;;;;54.88;24.20;;;;;;;-0.38;91.14;98321.03;5037903;28;20029;-86
2021/04/10 04:17:40;;;;;;;55.33;24.50;;;;;;;-0.33;89.71;98310.47;5048632;28;20507;-86
2021/04/10 04:20:06;;;;;;;71.47;24.42;;;;;;;-0.27;90.69;98323.56;5065215;28;20051;-86
2021/04/10 04:22:31;;;;;;;84.57;34.95;;;;;;;-0.30;90.83;98311.34;5045645;28;20394;-88
2021/04/10 04:24:57;;;;;;;53.88;23.10;;;;;;;-0.22;91.13;98321.81;5042514;28;20119;-85
2021/04/10 04:27:22;;;;;;;53.88;21.13;;;;;;;-0.31;91.00;98308.72;5040796;28;20040;-86
2021/04/10 04:29:49;;;;;;;48.50;21.95;;;;;;;-0.15;90.72;98305.97;5059796;28;20036;-87
2021/04/10 04:32:14;;;;;;;53.70;22.75;;;;;;;-0.04;90.32;98305.88;5016842;28;20044;-86
2021/04/10 04:34:40;;;;;;;41.60;20.13;;;;;;;-0.01;89.42;98313.75;5075788;28;20099;-86
2021/04/10 04:37:06;;;;;;;42.63;19.38;;;;;;;0.10;88.97;98317.16;5055247;28;20121;-86
2021/04/10 04:39:32;;;;;;;69.95;31.80;;;;;;;0.22;88.41;98324.94;5018697;28;20420;-86
2021/04/10 04:42:01;;;;;;;56.42;27.92;;;;;;;0.30;87.68;98331.03;5018317;28;20033;-85
2021/04/10 04:44:27;;;;;;;78.35;30.77;;;;;;;0.37;86.42;98330.06;5058410;28;20025;-86
2021/04/10 04:46:53;;;;;;;63.83;27.90;;;;;;;0.37;85.39;98332.69;5030899;28;20025;-86
2021/04/10 04:49:19;;;;;;;53.95;23.50;;;;;;;0.45;85.58;98328.25;5053230;28;20693;-85
2021/04/10 04:51:44;;;;;;;64.82;28.35;;;;;;;0.71;84.85;98329.75;5019175;28;20025;-86
2021/04/10 04:54:10;;;;;;;51.75;19.90;;;;;;;0.85;84.05;98333.97;5033368;28;20365;-85
2021/04/10 04:56:35;;;;;;;64.75;23.55;;;;;;;1.26;83.09;98332.63;5071355;28;20025;-85
2021/04/10 04:59:02;;;;;;;45.10;20.25;;;;;;;1.95;78.77;98338.66;5021098;28;20032;-85
2021/04/10 05:01:27;;;;;;;46.88;21.58;;;;;;;2.83;74.86;98329.25;5018733;28;20029;-86
2021/04/10 05:03:53;;;;;;;68.57;28.38;;;;;;;4.06;68.54;98327.47;5040134;28;20024;-85
2021/04/10 05:06:21;;;;;;;53.17;24.17;;;;;;;4.61;64.49;98338.47;5057924;28;20025;-86
2021/04/10 05:08:47;;;;;;;106.32;43.53;;;;;;;4.31;67.06;98331.25;5071189;28;20570;-86
2021/04/10 05:11:14;;;;;;;133.02;49.75;;;;;;;4.28;65.98;98328.69;5053089;28;20076;-86
2021/04/10 05:13:41;;;;;;;75.30;29.75;;;;;;;4.76;64.59;98327.47;5072027;28;20049;-87
2021/04/10 05:16:06;;;;;;;58.47;23.95;;;;;;;5.13;62.54;98327.34;5051320;28;20026;-86
2021/04/10 05:18:53;;;;;;;49.53;23.05;;;;;;;5.32;62.09;98338.28;5072648;28;20029;-88
2021/04/10 05:21:19;;;;;;;68.82;29.42;;;;;;;5.97;58.93;98323.94;5020026;28;20087;-86
2021/04/10 05:23:44;;;;;;;58.42;25.55;;;;;;;6.59;57.06;98322.81;5074691;28;20033;-86
2021/04/10 05:26:10;;;;;;;57.38;27.10;;;;;;;7.56;54.33;98334.41;5038235;28;20133;-86
2021/04/10 05:28:35;;;;;;;66.30;29.55;;;;;;;8.72;51.02;98336.00;5017104;28;20926;-87
2021/04/10 05:31:01;;;;;;;75.93;30.92;;;;;;;10.42;46.12;98329.13;5061780;28;20035;-87
2021/04/10 05:33:31;;;;;;;74.65;30.52;;;;;;;11.98;42.58;98330.81;5055662;28;20420;-88
2021/04/10 05:35:59;;;;;;;70.47;32.33;;;;;;;13.52;38.98;98327.13;5025516;28;20040;-87
2021/04/10 05:38:25;;;;;;;68.20;32.42;;;;;;;14.33;35.71;98318.41;5029555;28;20156;-87
2021/04/10 05:40:51;;;;;;;72.53;33.22;;;;;;;14.77;35.22;98319.97;5018478;28;20131;-87
2021/04/10 05:43:17;;;;;;;59.40;32.17;;;;;;;14.71;34.95;98320.38;5024464;28;20033;-86
2021/04/10 05:45:43;;;;;;;97.90;45.97;;;;;;;15.15;34.35;98315.59;5050255;28;20029;-88
2021/04/10 05:48:08;;;;;;;101.13;46.15;;;;;;;14.48;34.98;98314.72;5058477;28;20488;-77
2021/04/10 05:50:34;;;;;;;134.70;57.63;;;;;;;15.53;34.12;98321.97;5037726;28;20487;-79
2021/04/10 05:53:00;;;;;;;141.70;66.40;;;;;;;15.28;35.42;98319.19;5036563;28;20100;-79
2021/04/10 05:55:26;;;;;;;124.75;61.20;;;;;;;15.89;33.46;98312.22;5071887;28;20029;-87
2021/04/10 05:57:51;;;;;;;132.20;61.03;;;;;;;16.02;33.72;98321.19;5040676;28;20052;-84
2021/04/10 06:00:18;;;;;;;133.85;59.67;;;;;;;16.07;33.46;98314.47;5065619;28;20033;-84
2021/04/10 06:02:48;;;;;;;127.03;56.13;;;;;;;16.68;32.86;98319.00;5023964;28;20107;-86
2021/04/10 06:05:14;;;;;;;115.93;55.85;;;;;;;16.96;32.04;98316.94;5028112;28;20033;-84
2021/04/10 06:07:40;;;;;;;114.53;55.20;;;;;;;17.18;31.29;98300.81;5019414;28;20555;-84
2021/04/10 06:10:06;;;;;;;118.65;52.75;;;;;;;17.29;31.45;98304.41;5073782;28;20501;-86
2021/04/10 06:12:31;;;;;;;123.55;58.22;;;;;;;17.47;31.00;98312.97;5019346;28;20053;-85
2021/04/10 06:14:57;;;;;;;113.00;53.10;;;;;;;18.19;30.21;98310.84;5068541;28;20404;-85
2021/04/10 06:17:23;;;;;;;97.47;52.40;;;;;;;18.23;30.19;98309.63;5056832;28;20460;-86
2021/04/10 06:19:48;;;;;;;101.22;51.92;;;;;;;18.20;29.66;98302.63;5047294;28;20032;-84
2021/04/10 06:22:14;;;;;;;99.55;48.85;;;;;;;18.49;28.19;98307.53;5067333;28;20079;-85
2021/04/10 06:24:39;;;;;;;116.25;54.85;;;;;;;19.09;28.21;98282.59;5059709;28;20108;-87
2021/04/10 06:27:05;;;;;;;96.95;47.28;;;;;;;19.38;27.52;98281.84;5037722;28;20103;-87
2021/04/10 06:29:31;;;;;;;108.18;48.17;;;;;;;19.07;28.45;98303.59;5029955;28;20108;-86
2021/04/10 06:31:57;;;;;;;106.10;47.75;;;;;;;19.35;27.16;98302.94;5060337;28;20060;-87
2021/04/10 06:34:22;;;;;;;104.53;54.03;;;;;;;19.06;28.30;98307.28;5030039;28;20407;-87
2021/04/10 06:36:48;;;;;;;83.63;42.42;;;;;;;18.32;28.06;98295.34;5029572;28;20025;-87
2021/04/10 06:39:13;;;;;;;110.68;47.65;;;;;;;19.34;26.47;98298.53;5025605;28;20025;-88
2021/04/10 06:41:39;;;;;;;89.13;44.92;;;;;;;20.29;26.06;98300.16;5027938;28;20053;-88
2021/04/10 06:44:06;;;;;;;101.82;48.85;;;;;;;19.22;27.16;98286.00;5056942;28;20090;-88
2021/04/10 06:46:35;;;;;;;77.00;41.78;;;;;;;19.26;26.49;98287.44;5021539;28;20389;-86
2021/04/10 06:49:05;;;;;;;94.22;44.45;;;;;;;20.44;25.93;98290.63;5024640;28;20035;-87
2021/04/10 06:51:31;;;;;;;90.95;45.53;;;;;;;20.06;26.32;98283.13;5056428;28;20100;-86
2021/04/10 06:53:57;;;;;;;74.75;39.50;;;;;;;19.98;25.83;98291.09;5059596;28;20125;-85
2021/04/10 06:56:32;;;;;;;84.82;39.65;;;;;;;20.50;25.86;98282.78;5062021;28;20065;-86
2021/04/10 06:59:54;;;;;;;53.60;26.20;;;;;;;20.85;25.34;98293.16;5029579;28;20055;-86
2021/04/10 07:02:20;;;;;;;62.90;31.65;;;;;;;21.44;24.42;98275.88;4999928;28;20022;-87
2021/04/10 07:04:49;;;;;;;58.83;29.08;;;;;;;21.23;24.70;98269.72;4979654;28;20807;-88
2021/04/10 07:07:15;;;;;;;55.03;26.45;;;;;;;21.36;24.22;98281.19;5004955;28;20037;-87
2021/04/10 07:09:40;;;;;;;53.42;25.13;;;;;;;21.97;24.65;98285.25;5058594;28;20085;-88
2021/04/10 07:12:07;;;;;;;51.53;28.33;;;;;;;21.74;24.20;98272.97;5052110;28;20879;-88
2021/04/10 07:14:37;;;;;;;49.15;25.38;;;;;;;21.54;23.90;98271.28;5022702;28;20037;-88
2021/04/10 07:17:03;;;;;;;191.05;51.20;;;;;;;21.56;24.59;98277.44;5063800;28;20039;-86
2021/04/10 07:19:29;;;;;;;84.28;31.42;;;;;;;21.74;24.36;98264.78;5072873;28;20107;-88
2021/04/10 07:22:06;;;;;;;60.03;27.20;;;;;;;22.48;22.83;98270.28;5025305;28;20021;-90
2021/04/10 07:24:36;;;;;;;87.10;29.48;;;;;;;;;;5056988;28;20056;-88
2021/04/10 07:27:01;;;;;;;78.47;30.80;;;;;;;22.07;23.29;98267.03;5041127;28;20057;-86
2021/04/10 07:29:35;;;;;;;67.97;28.95;;;;;;;21.94;24.43;98266.47;5022649;28;20067;-87
2021/04/10 07:32:25;;;;;;;44.90;22.33;;;;;;;21.71;23.77;98266.94;5059623;28;20068;-86
2021/04/10 07:35:09;;;;;;;72.78;27.25;;;;;;;22.63;23.48;98274.22;5065059;28;20032;-90
2021/04/10 07:37:48;;;;;;;52.55;24.60;;;;;;;22.62;23.05;98273.34;5054298;28;20040;-88
2021/04/10 07:40:27;;;;;;;46.55;21.77;;;;;;;22.89;22.66;98267.03;5076848;28;20029;-88
2021/04/10 07:42:59;;;;;;;55.90;22.00;;;;;;;23.66;21.85;98269.13;5023869;28;20029;-85
2021/04/10 07:45:36;;;;;;;57.15;25.55;;;;;;;24.44;21.10;98270.00;5028286;28;20020;-84
2021/04/10 07:48:06;;;;;;;61.10;32.13;;;;;;;24.58;20.82;98266.66;5020204;28;20041;-85
2021/04/10 07:50:33;;;;;;;61.17;33.28;;;;;;;25.14;21.18;98261.34;5025410;28;20028;-85
2021/04/10 07:53:31;;;;;;;52.72;24.40;;;;;;;24.67;21.50;98260.19;5026179;28;20472;-85
2021/04/10 07:55:58;;;;;;;66.60;34.10;;;;;;;25.01;21.57;98268.38;5064098;28;20037;-79
2021/04/10 07:58:32;;;;;;;61.22;29.85;;;;;;;24.75;21.95;98261.06;5033182;28;20067;-78
2021/04/10 08:01:07;;;;;;;62.58;30.67;;;;;;;26.07;20.21;98259.13;5043899;28;20057;-78
2021/04/10 08:03:43;;;;;;;67.60;32.00;;;;;;;26.49;19.98;98256.97;5068047;28;20029;-78
2021/04/10 08:06:08;;;;;;;60.95;28.90;;;;;;;27.54;20.96;98263.78;5039333;28;20036;-78
2021/04/10 08:08:54;;;;;;;56.15;26.45;;;;;;;28.04;18.86;98255.78;5043135;28;20159;-78
2021/04/10 08:11:39;;;;;;;33.28;18.45;;;;;;;26.52;17.15;98242.88;5034393;28;20073;-78
2021/04/10 08:14:06;;;;;;;30.88;13.98;;;;;;;26.26;17.95;98234.09;5033520;28;20095;-77
2021/04/10 08:16:36;;;;;;;28.02;15.65;;;;;;;25.67;18.12;98227.16;5045148;28;20070;-78
2021/04/10 08:19:03;;;;;;;31.45;14.57;;;;;;;25.31;19.54;98226.63;5038355;28;20112;-78
2021/04/10 08:21:32;;;;;;;18.50;9.18;;;;;;;26.76;17.10;98233.69;5070136;28;20111;-77
2021/04/10 08:24:03;;;;;;;25.27;6.43;;;;;;;27.39;14.61;98216.97;5046860;28;20032;-78
2021/04/10 08:26:29;;;;;;;14.93;8.65;;;;;;;27.45;15.73;98210.78;5029482;28;20392;-79
2021/04/10 08:28:55;;;;;;;22.80;9.65;;;;;;;27.23;16.69;98212.47;5053185;28;20035;-78
2021/04/10 08:31:21;;;;;;;23.50;7.93;;;;;;;26.99;15.44;98204.41;5020800;28;20447;-78
2021/04/10 08:33:46;;;;;;;12.90;7.10;;;;;;;28.13;14.88;98213.41;5032351;28;20099;-78
2021/04/10 08:36:12;;;;;;;6.82;4.05;;;;;;;27.36;14.51;98192.59;5045306;28;20036;-79
2021/04/10 08:38:40;;;;;;;6.65;4.00;;;;;;;27.60;13.27;98189.66;5053660;28;20029;-78
2021/04/10 08:41:08;;;;;;;8.00;4.55;;;;;;;28.73;13.08;98190.31;5055889;28;20028;-79
2021/04/10 08:43:35;;;;;;;8.77;5.68;;;;;;;28.45;15.76;98195.66;5031648;28;20061;-78
2021/04/10 08:46:03;;;;;;;11.35;8.63;;;;;;;28.00;14.12;98193.91;5053380;28;20106;-79
2021/04/10 08:48:28;;;;;;;8.70;3.78;;;;;;;26.04;14.33;98182.69;5058666;28;20021;-79
2021/04/10 08:50:56;;;;;;;5.72;3.20;;;;;;;27.07;14.29;98174.13;5079193;28;20044;-78
2021/04/10 08:53:24;;;;;;;8.23;3.38;;;;;;;28.07;12.93;98172.03;5039472;28;20025;-79
2021/04/10 08:55:51;;;;;;;5.35;3.10;;;;;;;27.61;14.22;98169.41;5039388;28;20432;-78
2021/04/10 08:58:22;;;;;;;9.88;4.35;;;;;;;27.13;13.44;98151.44;5037121;28;20441;-78
2021/04/10 09:00:58;;;;;;;5.53;3.80;;;;;;;27.47;13.83;98162.00;5053687;28;20045;-78
2021/04/10 09:03:43;;;;;;;8.13;4.25;;;;;;;28.58;13.54;98153.66;5028851;28;20033;-78
2021/04/10 09:06:08;;;;;;;9.10;3.80;;;;;;;28.32;14.20;98163.28;5039536;28;20021;-78
2021/04/10 09:08:34;;;;;;;16.00;3.88;;;;;;;28.77;13.98;98150.28;5045505;28;20112;-78
2021/04/10 09:11:01;;;;;;;9.48;5.10;;;;;;;27.51;13.65;98157.81;5062256;28;20041;-78
2021/04/10 09:13:31;;;;;;;10.18;4.43;;;;;;;27.76;13.97;98156.50;5023026;28;20033;-79
2021/04/10 09:16:20;;;;;;;9.27;3.83;;;;;;;27.73;13.69;98154.16;5033712;28;20037;-77
2021/04/10 09:18:57;;;;;;;8.00;3.75;;;;;;;27.97;13.82;98151.13;5041814;28;20068;-78
2021/04/10 09:21:34;;;;;;;5.75;3.40;;;;;;;28.41;13.80;98158.53;5061624;28;20036;-78
2021/04/10 09:24:00;;;;;;;13.80;3.58;;;;;;;28.28;14.51;98144.56;5015465;28;20478;-77
2021/04/10 09:26:25;;;;;;;8.02;4.03;;;;;;;29.17;12.67;98137.78;5036288;28;20036;-77
2021/04/10 09:28:54;;;;;;;3.88;2.88;;;;;;;27.14;13.31;98128.38;5042960;28;20044;-77
2021/04/10 09:31:49;;;;;;;8.75;3.67;;;;;;;24.92;15.90;98133.31;5037370;28;20104;-76
2021/04/10 09:34:48;;;;;;;3.97;3.00;;;;;;;26.07;15.38;98139.31;5048472;28;20047;-80
2021/04/10 09:37:20;;;;;;;9.82;4.10;;;;;;;27.31;13.71;98129.13;5059528;28;20032;-78
2021/04/10 09:40:04;;;;;;;6.75;3.38;;;;;;;25.92;14.91;98126.50;5031075;28;20033;-79
2021/04/10 09:42:51;;;;;;;9.13;4.07;;;;;;;26.39;13.71;98130.13;5039948;28;20087;-78
2021/04/10 09:45:25;;;;;;;7.53;4.55;;;;;;;28.09;12.79;98124.00;5044979;28;20029;-79
2021/04/10 09:48:00;;;;;;;6.43;3.08;;;;;;;28.95;11.99;98112.13;5044307;28;20108;-81
2021/04/10 09:50:25;;;;;;;10.60;3.80;;;;;;;29.28;13.40;98126.25;5051785;28;20127;-79
2021/04/10 09:53:04;;;;;;;20.20;12.20;;;;;;;28.91;13.58;98110.84;5037334;28;20025;-77
2021/04/10 09:55:36;;;;;;;11.45;3.88;;;;;;;29.40;13.87;98119.16;5017897;28;20072;-82
2021/04/10 09:58:20;;;;;;;7.63;3.60;;;;;;;29.44;11.87;98103.94;5042598;28;20500;-83
2021/04/10 10:00:50;;;;;;;7.25;3.20;;;;;;;28.28;11.93;98090.38;5044196;28;20033;-83
2021/04/10 10:03:23;;;;;;;9.95;3.72;;;;;;;28.68;12.02;98102.75;5047915;28;20477;-82
2021/04/10 10:05:51;;;;;;;13.00;7.32;;;;;;;29.57;11.56;98099.34;5024437;28;20036;-83
2021/04/10 10:08:23;;;;;;;11.60;7.18;;;;;;;28.40;12.14;98087.97;5052733;28;20022;-84
2021/04/10 10:10:54;;;;;;;7.03;3.17;;;;;;;28.16;12.18;98082.81;5025831;28;20088;-79
2021/04/10 10:13:22;;;;;;;4.72;2.97;;;;;;;27.33;13.32;98085.81;5054671;28;20048;-77
2021/04/10 10:15:50;;;;;;;6.45;3.58;;;;;;;24.94;14.15;98071.06;5018059;28;20037;-78
2021/04/10 10:18:18;;;;;;;7.35;3.28;;;;;;;26.01;13.50;98071.47;5051258;28;20029;-78
2021/04/10 10:21:16;;;;;;;9.77;3.53;;;;;;;26.88;12.88;98065.63;5039797;28;20037;-79
2021/04/10 10:23:54;;;;;;;7.47;3.50;;;;;;;25.76;13.31;98056.16;5041916;28;20029;-78
2021/04/10 10:26:25;;;;;;;8.57;3.40;;;;;;;26.76;13.05;98060.72;5023831;28;20473;-78
2021/04/10 10:29:02;;;;;;;6.60;2.87;;;;;;;28.23;14.11;98067.25;5022683;28;20873;-78
2021/04/10 10:31:31;;;;;;;6.93;2.80;;;;;;;26.91;12.59;98058.91;5048895;28;20021;-78
2021/04/10 10:34:15;;;;;;;5.80;3.22;;;;;;;26.75;14.21;98064.50;5041936;28;20021;-78
2021/04/10 10:36:42;;;;;;;8.18;2.70;;;;;;;26.98;14.26;98059.03;5020637;28;20029;-77
2021/04/10 10:39:23;;;;;;;8.35;2.60;;;;;;;25.05;13.96;98050.66;5010040;28;20029;-77
2021/04/10 10:41:48;;;;;;;12.18;3.00;;;;;;;26.93;15.63;98063.16;5031768;28;20515;-77
2021/04/10 10:44:17;;;;;;;8.88;4.85;;;;;;;27.31;14.76;98064.03;5041216;28;20061;-78
2021/04/10 10:46:43;;;;;;;4.30;2.60;;;;;;;28.22;12.02;98047.13;5032026;28;20036;-78
2021/04/10 10:49:12;;;;;;;6.85;4.40;;;;;;;29.88;12.40;98051.19;5023687;28;20430;-79
2021/04/10 10:51:40;;;;;;;4.82;2.47;;;;;;;27.65;13.24;98040.66;5037270;28;20477;-78
2021/04/10 10:54:06;;;;;;;13.38;7.47;;;;;;;28.61;12.27;98034.84;5042549;28;20596;-78
2021/04/10 10:56:32;;;;;;;12.00;4.30;;;;;;;30.18;11.96;98043.47;5043912;28;20096;-79
2021/04/10 10:59:05;;;;;;;16.73;6.03;;;;;;;29.92;12.79;98038.69;5047230;28;20066;-78
2021/04/10 11:01:41;;;;;;;13.00;5.45;;;;;;;30.31;11.43;98033.31;5048939;28;20448;-78
2021/04/10 11:04:27;;;;;;;4.40;3.00;;;;;;;29.00;12.14;98027.00;5032319;28;20036;-78
2021/04/10 11:06:55;;;;;;;6.18;3.10;;;;;;;29.15;10.93;98038.75;5049471;28;20419;-78
2021/04/10 11:09:26;;;;;;;6.30;3.10;;;;;;;30.10;11.64;98027.94;5042345;28;20097;-78
2021/04/10 11:11:54;;;;;;;4.97;2.65;;;;;;;30.54;12.54;98020.03;5048421;28;20041;-76
2021/04/10 11:14:31;;;;;;;8.07;3.58;;;;;;;29.94;11.19;98014.47;5031573;28;20090;-77
2021/04/10 11:16:58;;;;;;;5.03;2.67;;;;;;;28.72;11.27;98012.31;5032281;28;20028;-76
2021/04/10 11:19:31;;;;;;;4.95;1.98;;;;;;;27.58;11.76;98014.94;5048946;28;20025;-77
2021/04/10 11:21:58;;;;;;;6.60;2.40;;;;;;;26.63;12.39;98003.69;5031931;28;20116;-77
2021/04/10 11:24:42;;;;;;;4.75;2.42;;;;;;;28.95;11.98;98007.44;5029307;28;20543;-76
2021/04/10 11:27:17;;;;;;;8.32;2.95;;;;;;;29.70;11.37;98002.03;5053896;28;20513;-77
2021/04/10 11:29:51;;;;;;;4.35;2.63;;;;;;;29.15;11.98;98002.09;5045421;28;20041;-77
2021/04/10 11:32:21;;;;;;;7.28;3.03;;;;;;;29.53;12.16;98000.69;5029679;28;20104;-77
2021/04/10 11:34:46;;;;;;;5.93;2.10;;;;;;;28.61;11.87;97979.78;5028646;28;20528;-77